Time;durP1;ratioP1;P1;durP2;ratioP2;P2;SDS_P1;SDS_P2;PMS_P1;PMS_P2;Temp;Humidity;BMP_temperature;BMP_pressure;BME280_temperature;BME280_humidity;BME280_pressure;Samples;Min_cycle;Max_cycle;Signal;HPM_P1;HPM_P2
2022/03/04 00:00:59;;;;;;;;;;;0.10;94.40;;;;;;5101304;28;19919;-79
2022/03/04 00:03:25;;;;;;;;;;;-1.20;94.10;;;;;;5102808;28;19908;-78
2022/03/04 00:05:50;;;;;;;;;;;-1.30;94.20;;;;;;5104673;28;19969;-78
2022/03/04 00:08:16;;;;;;;;;;;-1.30;94.10;;;;;;5104782;28;19923;-79
2022/03/04 00:10:42;;;;;;;;;;;1.00;94.80;;;;;;5103282;28;19911;-79
2022/03/04 00:13:08;;;;;;;;;;;0.00;94.60;;;;;;5085176;28;20263;-79
2022/03/04 00:15:34;;;;;;;;;;;-0.40;94.50;;;;;;5102888;28;19987;-79
2022/03/04 00:17:59;;;;;;;;;;;-1.50;94.50;;;;;;5105373;28;19912;-79
2022/03/04 00:20:25;;;;;;;;;;;-1.50;94.50;;;;;;5086071;28;20061;-79
2022/03/04 00:22:50;;;;;;;;;;;-1.50;94.50;;;;;;5103133;28;19992;-79
2022/03/04 00:25:17;;;;;;;;;;;-1.50;94.60;;;;;;5086317;28;19919;-79
2022/03/04 00:27:43;;;;;;;;;;;0.50;95.00;;;;;;5106413;28;19922;-79
2022/03/04 00:30:09;;;;;;;;;;;-1.60;94.50;;;;;;5104563;28;19912;-79
2022/03/04 00:32:35;;;;;;;;;;;-1.60;94.60;;;;;;5104928;28;19914;-79
2022/03/04 00:35:01;;;;;;;;;;;-1.70;94.60;;;;;;5105481;28;20362;-79
2022/03/04 00:37:26;;;;;;;;;;;-1.70;94.70;;;;;;5109463;28;19908;-80
2022/03/04 00:39:52;;;;;;;;;;;-0.30;95.20;;;;;;5110701;28;19923;-79
2022/03/04 00:42:18;;;;;;;;;;;-1.70;94.80;;;;;;5070022;28;20173;-80
2022/03/04 00:44:43;;;;;;;;;;;-1.80;94.80;;;;;;5103769;28;19920;-79
2022/03/04 00:47:09;;;;;;;;;;;-1.70;95.00;;;;;;5103103;28;20386;-78
2022/03/04 00:49:35;;;;;;;;;;;-1.70;94.70;;;;;;5102654;28;20362;-79
2022/03/04 00:52:01;;;;;;;;;;;-1.80;95.00;;;;;;5102697;28;19976;-79
2022/03/04 00:54:27;;;;;;;;;;;-1.80;95.00;;;;;;5103146;28;20487;-79
2022/03/04 00:56:52;;;;;;;;;;;-1.00;95.40;;;;;;5102284;28;19916;-79
2022/03/04 00:59:18;;;;;;;;;;;-2.00;95.30;;;;;;5102204;28;20012;-80
2022/03/04 01:01:44;;;;;;;;;;;-2.00;95.40;;;;;;5102050;28;20405;-79
2022/03/04 01:04:09;;;;;;;;;;;-2.00;95.70;;;;;;5083018;28;19907;-79
2022/03/04 01:06:35;;;;;;;;;;;-2.00;95.50;;;;;;5103087;28;20575;-79
2022/03/04 01:09:01;;;;;;;;;;;-1.90;95.50;;;;;;5083927;28;19915;-79
2022/03/04 01:11:26;;;;;;;;;;;-2.00;95.30;;;;;;5083558;28;20340;-79
2022/03/04 01:13:52;;;;;;;;;;;-2.00;95.40;;;;;;5101560;28;19912;-79
2022/03/04 01:16:17;;;;;;;;;;;-0.60;95.80;;;;;;5102098;28;20290;-79
2022/03/04 01:18:43;;;;;;;;;;;-1.90;95.60;;;;;;5102465;28;20442;-79
2022/03/04 01:21:09;;;;;;;;;;;-1.10;95.60;;;;;;5101940;28;19907;-79
2022/03/04 01:23:34;;;;;;;;;;;-2.10;95.40;;;;;;5101337;28;19912;-79
2022/03/04 01:26:00;;;;;;;;;;;-2.10;95.40;;;;;;5083578;28;19912;-79
2022/03/04 01:28:27;;;;;;;;;;;-2.20;95.40;;;;;;5101725;28;19920;-79
2022/03/04 01:30:53;;;;;;;;;;;-2.30;95.50;;;;;;5102999;28;20001;-79
2022/03/04 01:33:19;;;;;;;;;;;-2.10;95.60;;;;;;5102541;28;19947;-79
2022/03/04 01:35:45;;;;;;;;;;;-2.20;95.50;;;;;;5104909;28;19973;-78
2022/03/04 01:38:10;;;;;;;;;;;-2.30;95.40;;;;;;5122116;28;19912;-79
2022/03/04 01:40:36;;;;;;;;;;;-2.00;95.60;;;;;;5120128;28;19915;-79
2022/03/04 01:43:02;;;;;;;;;;;-1.90;95.70;;;;;;5119440;28;20002;-79
2022/03/04 01:45:28;;;;;;;;;;;-2.40;95.80;;;;;;5121717;28;19930;-79
2022/03/04 01:47:53;;;;;;;;;;;-2.40;95.80;;;;;;5116333;28;20133;-79
2022/03/04 01:50:19;;;;;;;;;;;-2.40;95.80;;;;;;5110682;28;19942;-79
2022/03/04 01:52:45;;;;;;;;;;;-2.50;95.70;;;;;;5102076;27;19962;-79
2022/03/04 01:55:10;;;;;;;;;;;-2.40;96.00;;;;;;5102498;28;19915;-79
2022/03/04 01:57:36;;;;;;;;;;;-1.60;96.00;;;;;;5103090;28;20267;-79
2022/03/04 02:00:08;;;;;;;;;;;-1.40;95.90;;;;;;5102151;28;20369;-79
2022/03/04 02:02:33;;;;;;;;;;;-2.50;95.70;;;;;;5103106;28;19908;-79
2022/03/04 02:04:59;;;;;;;;;;;-2.10;95.70;;;;;;5103766;28;20289;-79
2022/03/04 02:07:24;;;;;;;;;;;-2.50;95.50;;;;;;5104063;28;19915;-79
2022/03/04 02:09:50;;;;;;;;;;;-2.60;95.60;;;;;;5103499;28;19991;-79
2022/03/04 02:12:16;;;;;;;;;;;-2.60;95.60;;;;;;5103687;28;20295;-79
2022/03/04 02:14:41;;;;;;;;;;;-2.30;95.70;;;;;;5103935;28;19919;-79
2022/03/04 02:17:07;;;;;;;;;;;-2.10;96.00;;;;;;5085392;28;19908;-79
2022/03/04 02:19:32;;;;;;;;;;;-2.80;95.90;;;;;;5104429;28;19923;-79
2022/03/04 02:22:02;;;;;;;;;;;-2.80;96.00;;;;;;5111572;28;20258;-80
2022/03/04 02:24:29;;;;;;;;;;;-2.80;96.00;;;;;;5110389;28;19912;-79
2022/03/04 02:26:55;;;;;;;;;;;-2.80;96.00;;;;;;5110406;28;20023;-80
2022/03/04 02:29:22;;;;;;;;;;;-2.80;96.00;;;;;;5112059;28;20148;-79
2022/03/04 02:31:48;;;;;;;;;;;-2.80;96.00;;;;;;5110192;28;20409;-80
2022/03/04 02:34:13;;;;;;;;;;;-2.20;96.20;;;;;;5106982;28;20109;-79
2022/03/04 02:36:39;;;;;;;;;;;-2.80;96.00;;;;;;5107720;28;19912;-79
2022/03/04 02:39:06;;;;;;;;;;;-1.50;96.40;;;;;;5108229;28;19907;-79
2022/03/04 02:41:34;;;;;;;;;;;-2.80;96.10;;;;;;5107769;28;20018;-80
2022/03/04 02:44:04;;;;;;;;;;;-2.90;96.10;;;;;;5102048;28;20007;-79
2022/03/04 02:46:29;;;;;;;;;;;-2.90;95.90;;;;;;5102742;28;19920;-78
2022/03/04 02:48:55;;;;;;;;;;;-2.90;96.00;;;;;;5103768;28;19916;-80
2022/03/04 02:51:21;;;;;;;;;;;-2.90;96.00;;;;;;5091855;28;19908;-79
2022/03/04 02:53:46;;;;;;;;;;;-3.00;96.00;;;;;;5085414;28;19938;-79
2022/03/04 02:56:12;;;;;;;;;;;-3.00;96.20;;;;;;5100721;28;19911;-79
2022/03/04 02:58:38;;;;;;;;;;;-3.00;96.10;;;;;;5100415;28;20463;-79
2022/03/04 03:01:03;;;;;;;;;;;-1.80;96.50;;;;;;5100365;28;19908;-79
2022/03/04 03:03:29;;;;;;;;;;;-3.20;96.30;;;;;;5099972;28;19912;-79
2022/03/04 03:05:54;;;;;;;;;;;-3.20;96.40;;;;;;5081260;28;20227;-79
2022/03/04 03:08:20;;;;;;;;;;;-3.20;96.40;;;;;;5099648;28;20294;-79
2022/03/04 03:10:46;;;;;;;;;;;-3.30;96.50;;;;;;5100517;28;20006;-80
2022/03/04 03:13:13;;;;;;;;;;;-3.20;96.70;;;;;;5082664;28;19908;-79
2022/03/04 03:15:38;;;;;;;;;;;-3.30;96.50;;;;;;5100296;28;20398;-79
2022/03/04 03:18:04;;;;;;;;;;;-3.40;96.40;;;;;;5081665;28;19908;-79
2022/03/04 03:20:29;;;;;;;;;;;-3.40;96.60;;;;;;5100369;28;19908;-79
2022/03/04 03:22:55;;;;;;;;;;;-2.70;96.80;;;;;;5081260;28;20447;-79
2022/03/04 03:25:20;;;;;;;;;;;-3.40;96.70;;;;;;5100502;28;19911;-79
2022/03/04 03:27:46;;;;;;;;;;;-0.80;97.40;;;;;;5099712;28;19912;-79
2022/03/04 03:30:12;;;;;;;;;;;-3.40;96.50;;;;;;5100783;28;19923;-79
2022/03/04 03:32:37;;;;;;;;;;;-2.80;96.70;;;;;;5099915;28;19908;-79
2022/03/04 03:35:03;;;;;;;;;;;-2.50;96.90;;;;;;5100549;28;19908;-79
2022/03/04 03:37:29;;;;;;;;;;;-3.50;96.70;;;;;;5102282;28;19908;-79
2022/03/04 03:39:55;;;;;;;;;;;-3.30;96.70;;;;;;5103964;28;20351;-79
2022/03/04 03:42:20;;;;;;;;;;;-3.00;96.90;;;;;;5103984;28;20124;-79
2022/03/04 03:44:46;;;;;;;;;;;-3.60;96.80;;;;;;5103767;28;19919;-80
2022/03/04 03:47:12;;;;;;;;;;;-3.60;96.80;;;;;;5104056;28;20497;-79
2022/03/04 03:49:38;;;;;;;;;;;-3.60;96.60;;;;;;5104736;28;19912;-79
2022/03/04 03:52:04;;;;;;;;;;;-3.60;96.50;;;;;;5105175;28;19911;-79
2022/03/04 03:54:30;;;;;;;;;;;-3.50;96.60;;;;;;5105550;28;20069;-79
2022/03/04 03:56:55;;;;;;;;;;;-1.30;97.10;;;;;;5105141;28;20251;-79
2022/03/04 03:59:21;;;;;;;;;;;-3.50;96.50;;;;;;5104069;28;19907;-79
2022/03/04 04:01:46;;;;;;;;;;;-3.40;96.30;;;;;;5104219;28;19908;-79
2022/03/04 04:04:12;;;;;;;;;;;-3.60;96.40;;;;;;5104124;28;20040;-79
2022/03/04 04:06:39;;;;;;;;;;;-3.50;96.40;;;;;;5104234;28;19919;-79
2022/03/04 04:09:06;;;;;;;;;;;-3.50;96.50;;;;;;5084910;28;20049;-79
2022/03/04 04:11:35;;;;;;;;;;;-3.50;96.30;;;;;;5103840;28;19919;-78
2022/03/04 04:14:04;;;;;;;;;;;-2.20;96.70;;;;;;5084918;28;19911;-79
2022/03/04 04:16:30;;;;;;;;;;;-3.50;96.20;;;;;;5104622;28;20065;-79
2022/03/04 04:18:56;;;;;;;;;;;-3.60;96.20;;;;;;5104070;28;20240;-79
2022/03/04 04:21:22;;;;;;;;;;;-3.50;96.10;;;;;;5103368;28;20199;-79
2022/03/04 04:23:48;;;;;;;;;;;-2.30;96.30;;;;;;5103793;28;19931;-79
2022/03/04 04:26:13;;;;;;;;;;;-3.60;96.10;;;;;;5104676;28;19908;-79
2022/03/04 04:28:39;;;;;;;;;;;-3.70;96.30;;;;;;5105052;28;19930;-79
2022/03/04 04:31:05;;;;;;;;;;;-2.60;96.60;;;;;;5085418;28;19965;-79
2022/03/04 04:33:31;;;;;;;;;;;-2.70;96.40;;;;;;5103605;28;20343;-79
2022/03/04 04:35:57;;;;;;;;;;;-2.70;96.50;;;;;;5103181;28;20093;-80
2022/03/04 04:38:23;;;;;;;;;;;-1.50;96.90;;;;;;5103928;28;19955;-79
2022/03/04 04:40:48;;;;;;;;;;;-3.70;96.20;;;;;;5103253;28;20423;-79
2022/03/04 04:43:14;;;;;;;;;;;-3.70;96.20;;;;;;5103351;28;19919;-79
2022/03/04 04:45:40;;;;;;;;;;;-3.70;96.20;;;;;;5104034;28;19991;-79
2022/03/04 04:48:05;;;;;;;;;;;-3.70;96.40;;;;;;5115415;28;19991;-79
2022/03/04 04:50:31;;;;;;;;;;;-1.80;96.80;;;;;;5110854;28;20011;-79
2022/03/04 04:52:56;;;;;;;;;;;-3.80;96.30;;;;;;5120750;28;19973;-78
2022/03/04 04:55:22;;;;;;;;;;;-3.70;96.50;;;;;;5122581;28;20048;-79
2022/03/04 04:57:47;;;;;;;;;;;-3.70;96.40;;;;;;5118070;28;19930;-78
2022/03/04 05:00:13;;;;;;;;;;;-3.70;96.60;;;;;;5118415;28;19981;-79
2022/03/04 05:02:39;;;;;;;;;;;-3.80;96.60;;;;;;5113739;28;19954;-79
2022/03/04 05:05:04;;;;;;;;;;;-3.70;96.50;;;;;;5112111;28;20267;-79
2022/03/04 05:07:30;;;;;;;;;;;-3.70;96.60;;;;;;5111097;28;20378;-79
2022/03/04 05:09:55;;;;;;;;;;;-1.60;97.00;;;;;;5092021;28;19991;-79
2022/03/04 05:12:21;;;;;;;;;;;-3.80;96.30;;;;;;5110571;28;19916;-79
2022/03/04 05:14:47;;;;;;;;;;;-2.50;96.80;;;;;;5110223;28;19907;-79
2022/03/04 05:17:12;;;;;;;;;;;-3.90;96.60;;;;;;5110046;28;19916;-79
2022/03/04 05:19:38;;;;;;;;;;;-3.90;96.60;;;;;;5106858;28;19908;-79
2022/03/04 05:22:03;;;;;;;;;;;-3.90;96.60;;;;;;5083175;28;20002;-79
2022/03/04 05:24:29;;;;;;;;;;;-3.90;96.40;;;;;;5101711;28;20200;-79
2022/03/04 05:26:54;;;;;;;;;;;-3.50;96.50;;;;;;5083834;28;20112;-79
2022/03/04 05:29:20;;;;;;;;;;;-3.30;96.70;;;;;;5082925;28;20308;-79
2022/03/04 05:31:46;;;;;;;;;;;-4.00;96.40;;;;;;5101466;28;19908;-79
2022/03/04 05:34:12;;;;;;;;;;;-3.20;96.60;;;;;;5101301;28;19908;-79
2022/03/04 05:36:38;;;;;;;;;;;-4.00;96.40;;;;;;5101516;28;19930;-79
2022/03/04 05:39:04;;;;;;;;;;;-3.50;96.40;;;;;;5100885;28;20350;-78
2022/03/04 05:41:30;;;;;;;;;;;-3.50;96.50;;;;;;5101247;28;19918;-78
2022/03/04 05:43:56;;;;;;;;;;;-1.40;96.90;;;;;;5082831;28;20224;-79
2022/03/04 05:46:21;;;;;;;;;;;-2.80;96.70;;;;;;5100685;28;19932;-79
2022/03/04 05:48:47;;;;;;;;;;;-4.00;96.40;;;;;;5100761;28;19916;-79
2022/03/04 05:51:13;;;;;;;;;;;-3.90;96.80;;;;;;5082463;28;20220;-78
2022/03/04 05:53:39;;;;;;;;;;;-3.90;96.70;;;;;;5100025;28;19926;-79
2022/03/04 05:56:05;;;;;;;;;;;-3.80;96.60;;;;;;5081016;28;19907;-79
2022/03/04 05:58:31;;;;;;;;;;;-3.70;96.60;;;;;;5100275;28;19908;-79
2022/03/04 06:00:57;;;;;;;;;;;-3.60;96.20;;;;;;5100291;28;20014;-79
2022/03/04 06:03:22;;;;;;;;;;;-3.60;96.00;;;;;;5081892;28;19946;-78
2022/03/04 06:05:48;;;;;;;;;;;-0.70;96.60;;;;;;5100315;28;19947;-79
2022/03/04 06:08:14;;;;;;;;;;;-3.50;95.90;;;;;;5100566;28;20177;-79
2022/03/04 06:10:40;;;;;;;;;;;-1.80;96.20;;;;;;5082365;28;20149;-79
2022/03/04 06:13:05;;;;;;;;;;;-1.50;96.00;;;;;;5082238;28;20199;-79
2022/03/04 06:15:31;;;;;;;;;;;-3.10;94.90;;;;;;5100848;28;20348;-79
2022/03/04 06:17:56;;;;;;;;;;;-1.70;95.10;;;;;;5100924;28;20098;-79
2022/03/04 06:20:22;;;;;;;;;;;-3.00;94.70;;;;;;5100820;28;20417;-79
2022/03/04 06:22:48;;;;;;;;;;;-1.90;94.70;;;;;;5101243;28;19977;-79
2022/03/04 06:25:14;;;;;;;;;;;-2.70;94.30;;;;;;5100839;28;19947;-79
2022/03/04 06:27:58;;;;;;;;;;;-2.40;94.00;;;;;;5082390;28;20313;-79
2022/03/04 06:30:25;;;;;;;;;;;-2.80;93.90;;;;;;5102086;28;19908;-78
2022/03/04 06:32:51;;;;;;;;;;;-2.60;94.10;;;;;;5101781;28;20188;-79
2022/03/04 06:35:16;;;;;;;;;;;-2.80;94.00;;;;;;5103204;28;19911;-79
2022/03/04 06:37:42;;;;;;;;;;;-1.00;94.50;;;;;;5106812;28;19919;-80
2022/03/04 06:40:08;;;;;;;;;;;-3.00;93.80;;;;;;5106120;28;19917;-79
2022/03/04 06:42:33;;;;;;;;;;;-2.70;93.80;;;;;;5067084;28;19985;-79
2022/03/04 06:44:59;;;;;;;;;;;-2.20;94.00;;;;;;5101098;28;19942;-80
2022/03/04 06:47:25;;;;;;;;;;;-2.70;93.80;;;;;;5100058;28;19912;-79
2022/03/04 06:49:51;;;;;;;;;;;-2.70;93.80;;;;;;5100451;28;19911;-79
2022/03/04 06:52:17;;;;;;;;;;;-2.70;93.80;;;;;;5100303;28;20326;-78
2022/03/04 06:54:42;;;;;;;;;;;-2.70;93.80;;;;;;5100061;28;19954;-79
2022/03/04 06:57:08;;;;;;;;;;;-1.70;94.10;;;;;;5100762;28;19926;-78
2022/03/04 06:59:33;;;;;;;;;;;-2.50;93.90;;;;;;5101221;28;20227;-79
2022/03/04 07:01:59;;;;;;;;;;;-2.30;93.70;;;;;;5100348;28;20088;-79
2022/03/04 07:04:25;;;;;;;;;;;-1.10;93.50;;;;;;5101045;28;20497;-79
2022/03/04 07:06:51;;;;;;;;;;;-0.10;93.70;;;;;;5101333;28;19995;-79
2022/03/04 07:09:17;;;;;;;;;;;-0.50;93.30;;;;;;5101999;28;19916;-79
2022/03/04 07:11:44;;;;;;;;;;;-0.90;92.90;;;;;;5103210;28;19989;-79
2022/03/04 07:14:09;;;;;;;;;;;-1.70;92.60;;;;;;5112144;28;20170;-79
2022/03/04 07:16:35;;;;;;;;;;;-1.60;92.30;;;;;;5107502;28;19908;-79
2022/03/04 07:19:02;;;;;;;;;;;-1.50;92.40;;;;;;5104921;28;19914;-79
2022/03/04 07:21:27;;;;;;;;;;;-1.40;91.70;;;;;;5104922;28;19914;-79
2022/03/04 07:23:54;;;;;;;;;;;-1.30;91.60;;;;;;5104075;28;20309;-78
2022/03/04 07:26:20;;;;;;;;;;;-1.20;91.50;;;;;;5085447;28;20056;-79
2022/03/04 07:28:46;;;;;;;;;;;-1.10;91.10;;;;;;5068034;28;20018;-79
2022/03/04 07:31:11;;;;;;;;;;;0.40;91.40;;;;;;5103435;28;20246;-79
2022/03/04 07:33:37;;;;;;;;;;;-1.30;90.40;;;;;;5103172;28;19919;-79
2022/03/04 07:36:04;;;;;;;;;;;-0.40;90.40;;;;;;5103319;28;20191;-79
2022/03/04 07:38:31;;;;;;;;;;;-0.30;90.00;;;;;;5102920;28;19907;-79
2022/03/04 07:41:00;;;;;;;;;;;-0.20;89.90;;;;;;5103304;28;20082;-79
2022/03/04 07:43:26;;;;;;;;;;;-0.10;89.50;;;;;;5103198;28;19939;-79
2022/03/04 07:45:51;;;;;;;;;;;1.50;90.20;;;;;;5102712;28;20257;-79
2022/03/04 07:48:17;;;;;;;;;;;-0.40;89.30;;;;;;5102807;28;20105;-79
2022/03/04 07:50:42;;;;;;;;;;;0.20;88.60;;;;;;5084145;28;20441;-78
2022/03/04 07:53:08;;;;;;;;;;;0.20;87.90;;;;;;5083961;28;19984;-79
2022/03/04 07:55:34;;;;;;;;;;;0.40;87.30;;;;;;5083770;28;19912;-78
2022/03/04 07:58:00;;;;;;;;;;;0.60;86.80;;;;;;5102333;28;19908;-79
2022/03/04 08:00:26;;;;;;;;;;;0.80;85.90;;;;;;5102872;28;20260;-78
2022/03/04 08:02:52;;;;;;;;;;;1.10;86.50;;;;;;5103547;28;19919;-79
2022/03/04 08:05:18;;;;;;;;;;;1.20;85.00;;;;;;5103977;28;19914;-79
2022/03/04 08:07:45;;;;;;;;;;;1.40;84.00;;;;;;5107518;28;19915;-79
2022/03/04 08:10:11;;;;;;;;;;;1.50;83.40;;;;;;5112449;28;19908;-79
2022/03/04 08:12:37;;;;;;;;;;;1.70;82.60;;;;;;5111185;28;20169;-79
2022/03/04 08:15:06;;;;;;;;;;;1.80;81.70;;;;;;5111404;28;19915;-79
2022/03/04 08:17:32;;;;;;;;;;;1.90;81.10;;;;;;5102973;28;19915;-79
2022/03/04 08:19:58;;;;;;;;;;;2.10;80.40;;;;;;5103700;28;20112;-79
2022/03/04 08:22:23;;;;;;;;;;;2.10;80.00;;;;;;5103739;28;20639;-79
2022/03/04 08:24:49;;;;;;;;;;;2.30;79.90;;;;;;5101968;28;20534;-78
2022/03/04 08:27:14;;;;;;;;;;;2.30;78.80;;;;;;5102876;28;20107;-79
2022/03/04 08:29:40;;;;;;;;;;;2.40;78.10;;;;;;5102545;28;20007;-79
2022/03/04 08:32:06;;;;;;;;;;;2.50;77.50;;;;;;5102579;28;19961;-79
2022/03/04 08:34:31;;;;;;;;;;;2.60;76.50;;;;;;5102034;28;20410;-79
2022/03/04 08:36:57;;;;;;;;;;;2.90;76.90;;;;;;5102794;28;19908;-79
2022/03/04 08:39:22;;;;;;;;;;;2.90;75.70;;;;;;5102457;28;20394;-79
2022/03/04 08:41:48;;;;;;;;;;;3.10;74.70;;;;;;5102594;28;20344;-79
2022/03/04 08:44:13;;;;;;;;;;;3.20;73.60;;;;;;5084192;28;20107;-78
2022/03/04 08:46:39;;;;;;;;;;;3.40;73.70;;;;;;5084103;28;19918;-79
2022/03/04 08:49:04;;;;;;;;;;;3.50;72.80;;;;;;5102062;28;20011;-79
2022/03/04 08:51:30;;;;;;;;;;;3.70;72.20;;;;;;5102849;28;19911;-79
2022/03/04 08:53:55;;;;;;;;;;;3.90;72.80;;;;;;5102934;28;20107;-79
2022/03/04 08:56:21;;;;;;;;;;;4.10;72.10;;;;;;5102683;28;19919;-79
2022/03/04 08:58:47;;;;;;;;;;;4.30;70.40;;;;;;5103190;28;19938;-79
2022/03/04 09:01:13;;;;;;;;;;;4.40;69.10;;;;;;5103276;28;19911;-79
2022/03/04 09:03:39;;;;;;;;;;;4.60;68.30;;;;;;5084656;28;19916;-79
2022/03/04 09:06:04;;;;;;;;;;;4.80;68.00;;;;;;5083165;28;19919;-79
2022/03/04 09:08:30;;;;;;;;;;;4.70;65.40;;;;;;5101928;28;20216;-80
2022/03/04 09:10:55;;;;;;;;;;;4.40;66.20;;;;;;5102224;28;19908;-79
2022/03/04 09:13:21;;;;;;;;;;;5.10;65.80;;;;;;5101985;28;19908;-79
2022/03/04 09:15:47;;;;;;;;;;;5.40;64.40;;;;;;5102480;28;19994;-79
2022/03/04 09:18:12;;;;;;;;;;;5.60;61.00;;;;;;5103233;28;20030;-79
2022/03/04 09:20:38;;;;;;;;;;;5.50;60.80;;;;;;5104467;28;20521;-78
2022/03/04 09:23:04;;;;;;;;;;;5.70;60.00;;;;;;5104052;28;19914;-79
2022/03/04 09:25:31;;;;;;;;;;;5.60;58.60;;;;;;5105638;28;20389;-79
2022/03/04 09:27:57;;;;;;;;;;;5.40;59.40;;;;;;5107376;28;19916;-79
2022/03/04 09:30:23;;;;;;;;;;;5.30;58.20;;;;;;5111224;28;19908;-80
2022/03/04 09:32:49;;;;;;;;;;;5.60;58.80;;;;;;5105709;28;19920;-79
2022/03/04 09:35:15;;;;;;;;;;;5.80;59.80;;;;;;5103929;28;19912;-79
2022/03/04 09:37:40;;;;;;;;;;;5.80;58.20;;;;;;5102505;28;20380;-79
2022/03/04 09:40:08;;;;;;;;;;;6.00;57.50;;;;;;5102730;28;19969;-79
2022/03/04 09:42:38;;;;;;;;;;;6.10;56.90;;;;;;5102833;28;19915;-79
2022/03/04 09:45:04;;;;;;;;;;;6.30;55.50;;;;;;5102439;28;19919;-79
2022/03/04 09:47:30;;;;;;;;;;;6.50;55.30;;;;;;5102146;28;19908;-78
2022/03/04 09:49:57;;;;;;;;;;;6.40;53.50;;;;;;5102829;28;19908;-79
2022/03/04 09:52:23;;;;;;;;;;;6.50;54.30;;;;;;5102889;28;20035;-79
2022/03/04 09:54:50;;;;;;;;;;;6.70;52.90;;;;;;5102433;28;19998;-79
2022/03/04 09:57:18;;;;;;;;;;;6.60;51.80;;;;;;5102614;28;20265;-79
2022/03/04 09:59:44;;;;;;;;;;;6.50;52.90;;;;;;5084069;28;19939;-79
2022/03/04 10:02:11;;;;;;;;;;;6.40;52.50;;;;;;5102575;28;20002;-79
2022/03/04 10:04:38;;;;;;;;;;;6.70;52.80;;;;;;5101557;28;19951;-79
2022/03/04 10:07:18;;;;;;;;;;;6.90;51.90;;;;;;5101267;28;19975;-79
2022/03/04 10:09:47;;;;;;;;;;;6.70;51.70;;;;;;5101245;28;20479;-79
2022/03/04 10:12:14;;;;;;;;;;;6.50;52.00;;;;;;5102410;28;20358;-79
2022/03/04 10:14:58;;;;;;;;;;;6.60;52.80;;;;;;5103639;28;19908;-79
2022/03/04 10:17:25;;;;;;;;;;;6.40;52.80;;;;;;5102970;28;19908;-80
2022/03/04 10:19:51;;;;;;;;;;;6.60;53.30;;;;;;5084780;28;19940;-79
2022/03/04 10:22:19;;;;;;;;;;;6.50;53.40;;;;;;5102623;28;19937;-79
2022/03/04 10:24:44;;;;;;;;;;;6.70;53.80;;;;;;5103447;28;19920;-79
2022/03/04 10:27:17;;;;;;;;;;;6.60;54.20;;;;;;5102366;28;20451;-78
2022/03/04 10:29:46;;;;;;;;;;;6.40;54.30;;;;;;5102057;28;19951;-79
2022/03/04 10:32:14;;;;;;;;;;;7.80;56.00;;;;;;5102856;28;20271;-79
2022/03/04 10:34:42;;;;;;;;;;;6.20;55.90;;;;;;5102946;28;20267;-79
2022/03/04 10:37:08;;;;;;;;;;;6.20;56.30;;;;;;5102956;28;20211;-79
2022/03/04 10:39:35;;;;;;;;;;;6.30;56.10;;;;;;5103249;28;19981;-79
2022/03/04 10:42:01;;;;;;;;;;;7.70;57.80;;;;;;5085567;28;19911;-79
2022/03/04 10:44:27;;;;;;;;;;;6.50;57.20;;;;;;5103797;28;20448;-79
2022/03/04 10:46:56;;;;;;;;;;;6.00;53.10;;;;;;5102358;28;20446;-79
2022/03/04 10:49:24;;;;;;;;;;;5.80;54.60;;;;;;5102420;28;19980;-79
2022/03/04 10:51:50;;;;;;;;;;;5.70;56.90;;;;;;5082872;28;20362;-80
2022/03/04 10:54:17;;;;;;;;;;;5.90;56.00;;;;;;5100691;28;19919;-79
2022/03/04 10:56:54;;;;;;;;;;;6.10;55.10;;;;;;5082385;28;19946;-79
2022/03/04 10:59:19;;;;;;;;;;;6.40;54.50;;;;;;5083005;28;19918;-79
2022/03/04 11:01:49;;;;;;;;;;;6.60;53.10;;;;;;5100733;28;19908;-80
2022/03/04 11:04:16;;;;;;;;;;;6.80;52.10;;;;;;5101051;28;19907;-79
2022/03/04 11:06:45;;;;;;;;;;;7.00;51.10;;;;;;5100630;28;20208;-79
2022/03/04 11:09:12;;;;;;;;;;;7.00;51.90;;;;;;5100762;28;20317;-79
2022/03/04 11:11:39;;;;;;;;;;;7.00;49.50;;;;;;5083654;28;19956;-79
2022/03/04 11:14:07;;;;;;;;;;;7.10;49.80;;;;;;5108467;28;20230;-79
2022/03/04 11:16:32;;;;;;;;;;;7.10;50.80;;;;;;5091368;28;19983;-79
2022/03/04 11:18:58;;;;;;;;;;;7.20;49.70;;;;;;5108055;28;19951;-79
2022/03/04 11:21:23;;;;;;;;;;;7.60;50.10;;;;;;5108259;28;19939;-79
2022/03/04 11:23:49;;;;;;;;;;;7.90;47.60;;;;;;5114627;28;19965;-80
2022/03/04 11:26:14;;;;;;;;;;;8.20;46.70;;;;;;5113927;28;19923;-79
2022/03/04 11:28:41;;;;;;;;;;;7.70;45.60;;;;;;5113988;28;20402;-79
2022/03/04 11:31:08;;;;;;;;;;;8.10;46.50;;;;;;5108879;28;19908;-79
2022/03/04 11:33:35;;;;;;;;;;;8.30;46.00;;;;;;5105825;28;19915;-79
2022/03/04 11:36:13;;;;;;;;;;;8.50;45.60;;;;;;5105086;28;20216;-79
2022/03/04 11:38:51;;;;;;;;;;;8.30;45.00;;;;;;5106149;28;19908;-79
2022/03/04 11:41:17;;;;;;;;;;;8.10;45.20;;;;;;5109652;28;19908;-79
2022/03/04 11:43:52;;;;;;;;;;;7.80;46.00;;;;;;5113388;28;19919;-80
2022/03/04 11:46:19;;;;;;;;;;;7.80;46.00;;;;;;5088039;28;19955;-79
2022/03/04 11:48:45;;;;;;;;;;;8.10;46.80;;;;;;5104809;28;19969;-80
2022/03/04 11:51:15;;;;;;;;;;;8.30;47.10;;;;;;5086628;28;20407;-80
2022/03/04 11:53:41;;;;;;;;;;;8.60;47.20;;;;;;5104585;28;19918;-79
2022/03/04 11:56:11;;;;;;;;;;;8.60;45.40;;;;;;5084860;28;20208;-79
2022/03/04 11:59:00;;;;;;;;;;;8.70;44.90;;;;;;5106473;28;20212;-79
2022/03/04 12:01:29;;;;;;;;;;;8.80;45.20;;;;;;5005576;28;19909;-79
2022/03/04 12:04:24;;;;;;;;;;;9.00;45.20;;;;;;5005177;28;19910;-79
2022/03/04 12:07:05;;;;;;;;;;;9.00;45.20;;;;;;4968957;28;20333;-79
2022/03/04 12:09:31;;;;;;;;;;;8.90;44.30;;;;;;4986168;28;20464;-79
2022/03/04 12:12:14;;;;;;;;;;;8.90;44.80;;;;;;4986279;28;20261;-79
2022/03/04 12:14:49;;;;;;;;;;;8.80;43.90;;;;;;4985639;28;19965;-80
2022/03/04 12:17:15;;;;;;;;;;;8.80;44.40;;;;;;4966996;28;19949;-79
2022/03/04 12:19:42;;;;;;;;;;;8.70;44.30;;;;;;4985732;28;19921;-79
2022/03/04 12:22:08;;;;;;;;;;;8.60;44.50;;;;;;4970000;28;19940;-79
2022/03/04 12:24:34;;;;;;;;;;;8.80;44.60;;;;;;4985744;28;20344;-79
2022/03/04 12:27:01;;;;;;;;;;;8.70;45.00;;;;;;4984256;28;19918;-80
2022/03/04 12:29:43;;;;;;;;;;;8.80;45.80;;;;;;4984736;28;19918;-79
2022/03/04 12:32:09;;;;;;;;;;;8.70;45.20;;;;;;4983271;28;19941;-79
2022/03/04 12:34:38;;;;;;;;;;;8.60;44.50;;;;;;4967715;28;20190;-79
2022/03/04 12:37:08;;;;;;;;;;;8.40;45.10;;;;;;4984790;28;19914;-79
2022/03/04 12:39:37;;;;;;;;;;;8.40;45.40;;;;;;5062672;28;20102;-79
2022/03/04 12:42:04;;;;;;;;;;;8.50;46.10;;;;;;5066883;28;20371;-79
2022/03/04 12:44:30;;;;;;;;;;;8.60;46.00;;;;;;5110735;28;19908;-79
2022/03/04 12:46:56;;;;;;;;;;;8.70;45.00;;;;;;5109888;28;20317;-79
2022/03/04 12:49:28;;;;;;;;;;;8.70;44.60;;;;;;5109454;28;19920;-79
2022/03/04 12:51:54;;;;;;;;;;;8.80;44.60;;;;;;5111346;28;20422;-79
2022/03/04 12:54:25;;;;;;;;;;;8.80;44.90;;;;;;5110172;28;20269;-79
2022/03/04 12:56:58;;;;;;;;;;;8.80;44.20;;;;;;5110658;28;19922;-79
2022/03/04 12:59:24;;;;;;;;;;;8.90;43.40;;;;;;5108645;28;19916;-79
2022/03/04 13:01:50;;;;;;;;;;;8.50;43.60;;;;;;5107611;28;19908;-79
2022/03/04 13:04:16;;;;;;;;;;;8.50;44.40;;;;;;5110757;28;20010;-79
2022/03/04 13:06:42;;;;;;;;;;;8.50;44.40;;;;;;5112153;28;19962;-79
2022/03/04 13:09:08;;;;;;;;;;;8.50;44.70;;;;;;5111654;28;20308;-80
2022/03/04 13:11:45;;;;;;;;;;;8.50;45.00;;;;;;5112732;28;20184;-79
2022/03/04 13:14:14;;;;;;;;;;;8.50;45.40;;;;;;5111394;28;19912;-80
2022/03/04 13:16:53;;;;;;;;;;;8.50;44.80;;;;;;5112665;28;19922;-79
2022/03/04 13:19:19;;;;;;;;;;;8.20;44.30;;;;;;5113041;28;20417;-80
2022/03/04 13:21:49;;;;;;;;;;;8.00;45.20;;;;;;5109221;28;19908;-80
2022/03/04 13:24:25;;;;;;;;;;;8.10;45.70;;;;;;5109790;28;19999;-79
2022/03/04 13:26:52;;;;;;;;;;;7.60;45.30;;;;;;5110768;28;20234;-80
2022/03/04 13:29:19;;;;;;;;;;;8.20;45.80;;;;;;5110780;28;20037;-79
2022/03/04 13:31:45;;;;;;;;;;;8.30;45.30;;;;;;5110080;28;20335;-79
2022/03/04 13:34:11;;;;;;;;;;;8.50;45.80;;;;;;5111003;28;20019;-79
2022/03/04 13:36:37;;;;;;;;;;;8.70;45.60;;;;;;5109461;28;20301;-79
2022/03/04 13:39:23;;;;;;;;;;;8.90;45.00;;;;;;5107761;28;20072;-79
2022/03/04 13:42:05;;;;;;;;;;;9.10;44.00;;;;;;5108051;28;19998;-79
2022/03/04 13:44:31;;;;;;;;;;;9.30;43.60;;;;;;5106915;28;19935;-80
2022/03/04 13:46:59;;;;;;;;;;;9.80;43.90;;;;;;5109058;28;19918;-80
2022/03/04 13:49:39;;;;;;;;;;;10.10;43.10;;;;;;5107275;28;19971;-79
2022/03/04 13:52:05;;;;;;;;;;;10.30;42.70;;;;;;5108799;28;20409;-80
2022/03/04 13:54:49;;;;;;;;;;;10.50;42.60;;;;;;5107862;28;20204;-80
2022/03/04 13:57:34;;;;;;;;;;;10.60;43.00;;;;;;5108550;28;19920;-79
2022/03/04 14:00:09;;;;;;;;;;;10.50;41.30;;;;;;5109827;28;19923;-79
2022/03/04 14:02:38;;;;;;;;;;;10.80;41.90;;;;;;5107049;28;19913;-80
2022/03/04 14:05:04;;;;;;;;;;;11.00;40.70;;;;;;5104238;28;20002;-79
2022/03/04 14:07:39;;;;;;;;;;;11.40;40.30;;;;;;5106822;28;20232;-81
2022/03/04 14:10:08;;;;;;;;;;;11.50;39.50;;;;;;5108704;28;19915;-81
2022/03/04 14:12:34;;;;;;;;;;;12.20;39.70;;;;;;5101526;28;20230;-80
2022/03/04 14:14:59;;;;;;;;;;;12.60;39.10;;;;;;5099560;28;20290;-80
2022/03/04 14:17:25;;;;;;;;;;;12.80;37.20;;;;;;5098383;28;19973;-80
2022/03/04 14:19:50;;;;;;;;;;;14.80;38.50;;;;;;5098359;28;19908;-80
2022/03/04 14:22:16;;;;;;;;;;;13.60;38.00;;;;;;5097377;28;20249;-79